sensor_id;sensor_type;location;lat;lon;timestamp;P1;durP1;ratioP1;P2;durP2;ratioP2
51824;SDS011;37879;52.986;6.282;2023-02-23T00:00:26;55.83;;;30.23;;
51824;SDS011;37879;52.986;6.282;2023-02-23T00:02:56;55.88;;;31.23;;
51824;SDS011;37879;52.986;6.282;2023-02-23T00:05:25;57.67;;;30.75;;
51824;SDS011;37879;52.986;6.282;2023-02-23T00:07:52;49.13;;;27.60;;
51824;SDS011;37879;52.986;6.282;2023-02-23T00:10:18;60.03;;;29.38;;
51824;SDS011;37879;52.986;6.282;2023-02-23T00:12:45;54.30;;;29.40;;
51824;SDS011;37879;52.986;6.282;2023-02-23T00:15:13;60.38;;;32.80;;
51824;SDS011;37879;52.986;6.282;2023-02-23T00:17:39;56.58;;;29.67;;
51824;SDS011;37879;52.986;6.282;2023-02-23T00:20:07;56.30;;;29.60;;
51824;SDS011;37879;52.986;6.282;2023-02-23T00:22:36;56.03;;;29.92;;
51824;SDS011;37879;52.986;6.282;2023-02-23T00:25:08;52.85;;;28.90;;
51824;SDS011;37879;52.986;6.282;2023-02-23T00:27:39;59.45;;;30.50;;
51824;SDS011;37879;52.986;6.282;2023-02-23T00:30:10;61.80;;;33.00;;
51824;SDS011;37879;52.986;6.282;2023-02-23T00:32:37;55.10;;;30.83;;
51824;SDS011;37879;52.986;6.282;2023-02-23T00:35:03;63.00;;;32.30;;
51824;SDS011;37879;52.986;6.282;2023-02-23T00:37:29;63.72;;;31.33;;
51824;SDS011;37879;52.986;6.282;2023-02-23T00:39:55;70.32;;;35.25;;
51824;SDS011;37879;52.986;6.282;2023-02-23T00:42:21;63.95;;;31.55;;
51824;SDS011;37879;52.986;6.282;2023-02-23T00:44:48;62.28;;;32.83;;
51824;SDS011;37879;52.986;6.282;2023-02-23T00:47:14;66.20;;;33.75;;
51824;SDS011;37879;52.986;6.282;2023-02-23T00:49:40;68.55;;;32.97;;
51824;SDS011;37879;52.986;6.282;2023-02-23T00:52:09;64.55;;;33.00;;
51824;SDS011;37879;52.986;6.282;2023-02-23T00:54:35;68.22;;;34.25;;
51824;SDS011;37879;52.986;6.282;2023-02-23T00:57:00;68.63;;;33.05;;
51824;SDS011;37879;52.986;6.282;2023-02-23T00:59:26;72.95;;;36.08;;
51824;SDS011;37879;52.986;6.282;2023-02-23T01:01:53;70.53;;;34.85;;
51824;SDS011;37879;52.986;6.282;2023-02-23T01:04:19;76.47;;;35.53;;
51824;SDS011;37879;52.986;6.282;2023-02-23T01:06:47;75.28;;;35.65;;
51824;SDS011;37879;52.986;6.282;2023-02-23T01:09:13;80.65;;;36.28;;
51824;SDS011;37879;52.986;6.282;2023-02-23T01:11:51;75.13;;;36.72;;
51824;SDS011;37879;52.986;6.282;2023-02-23T01:14:17;70.72;;;35.25;;
51824;SDS011;37879;52.986;6.282;2023-02-23T01:16:43;76.13;;;36.15;;
51824;SDS011;37879;52.986;6.282;2023-02-23T01:19:08;79.07;;;37.60;;
51824;SDS011;37879;52.986;6.282;2023-02-23T01:21:36;76.30;;;35.53;;
51824;SDS011;37879;52.986;6.282;2023-02-23T01:24:04;70.63;;;33.85;;
51824;SDS011;37879;52.986;6.282;2023-02-23T01:26:31;77.22;;;36.33;;
51824;SDS011;37879;52.986;6.282;2023-02-23T01:29:02;74.78;;;34.80;;
51824;SDS011;37879;52.986;6.282;2023-02-23T01:31:32;69.72;;;33.30;;
51824;SDS011;37879;52.986;6.282;2023-02-23T01:34:00;73.55;;;35.95;;
51824;SDS011;37879;52.986;6.282;2023-02-23T01:36:26;77.50;;;36.22;;
51824;SDS011;37879;52.986;6.282;2023-02-23T01:38:53;78.97;;;39.67;;
51824;SDS011;37879;52.986;6.282;2023-02-23T01:41:21;77.85;;;36.03;;
51824;SDS011;37879;52.986;6.282;2023-02-23T01:46:24;73.20;;;37.00;;
51824;SDS011;37879;52.986;6.282;2023-02-23T01:48:50;69.22;;;34.80;;
51824;SDS011;37879;52.986;6.282;2023-02-23T01:51:20;70.82;;;35.30;;
51824;SDS011;37879;52.986;6.282;2023-02-23T01:53:58;75.63;;;33.72;;
51824;SDS011;37879;52.986;6.282;2023-02-23T01:56:40;63.72;;;31.80;;
51824;SDS011;37879;52.986;6.282;2023-02-23T01:59:09;76.30;;;35.90;;
51824;SDS011;37879;52.986;6.282;2023-02-23T02:01:39;68.93;;;33.20;;
51824;SDS011;37879;52.986;6.282;2023-02-23T02:04:07;65.93;;;31.98;;
51824;SDS011;37879;52.986;6.282;2023-02-23T02:06:35;71.80;;;33.15;;
51824;SDS011;37879;52.986;6.282;2023-02-23T02:09:06;74.32;;;35.40;;
51824;SDS011;37879;52.986;6.282;2023-02-23T02:11:34;66.10;;;30.70;;
51824;SDS011;37879;52.986;6.282;2023-02-23T02:14:14;69.65;;;33.72;;
51824;SDS011;37879;52.986;6.282;2023-02-23T02:33:59;67.50;;;33.40;;
51824;SDS011;37879;52.986;6.282;2023-02-23T02:39:29;64.55;;;34.33;;
51824;SDS011;37879;52.986;6.282;2023-02-23T02:44:37;71.80;;;33.45;;
51824;SDS011;37879;52.986;6.282;2023-02-23T02:47:10;71.22;;;34.75;;
51824;SDS011;37879;52.986;6.282;2023-02-23T02:49:48;60.80;;;32.47;;
51824;SDS011;37879;52.986;6.282;2023-02-23T02:52:31;73.22;;;34.25;;
51824;SDS011;37879;52.986;6.282;2023-02-23T02:57:33;67.15;;;30.35;;
51824;SDS011;37879;52.986;6.282;2023-02-23T03:00:00;65.63;;;32.92;;
51824;SDS011;37879;52.986;6.282;2023-02-23T03:02:44;64.40;;;31.77;;
51824;SDS011;37879;52.986;6.282;2023-02-23T03:05:47;60.97;;;31.50;;
51824;SDS011;37879;52.986;6.282;2023-02-23T03:08:36;65.15;;;30.77;;
51824;SDS011;37879;52.986;6.282;2023-02-23T03:11:51;68.03;;;30.17;;
51824;SDS011;37879;52.986;6.282;2023-02-23T03:15:03;73.78;;;32.97;;
51824;SDS011;37879;52.986;6.282;2023-02-23T03:17:59;64.60;;;30.55;;
51824;SDS011;37879;52.986;6.282;2023-02-23T03:20:57;65.65;;;29.88;;
51824;SDS011;37879;52.986;6.282;2023-02-23T03:26:44;62.38;;;30.42;;
51824;SDS011;37879;52.986;6.282;2023-02-23T03:32:37;65.78;;;31.90;;
51824;SDS011;37879;52.986;6.282;2023-02-23T03:38:31;64.80;;;33.03;;
51824;SDS011;37879;52.986;6.282;2023-02-23T03:41:25;64.07;;;31.25;;
51824;SDS011;37879;52.986;6.282;2023-02-23T03:46:57;62.28;;;29.85;;
51824;SDS011;37879;52.986;6.282;2023-02-23T03:49:46;68.00;;;29.77;;
51824;SDS011;37879;52.986;6.282;2023-02-23T03:52:40;78.95;;;35.88;;
51824;SDS011;37879;52.986;6.282;2023-02-23T03:55:31;63.47;;;31.23;;
51824;SDS011;37879;52.986;6.282;2023-02-23T03:58:55;64.20;;;28.65;;
51824;SDS011;37879;52.986;6.282;2023-02-23T04:01:33;67.05;;;30.00;;
51824;SDS011;37879;52.986;6.282;2023-02-23T04:04:19;59.58;;;30.67;;
51824;SDS011;37879;52.986;6.282;2023-02-23T04:07:05;62.00;;;29.95;;
51824;SDS011;37879;52.986;6.282;2023-02-23T04:09:51;65.82;;;27.83;;
51824;SDS011;37879;52.986;6.282;2023-02-23T04:15:32;65.10;;;30.95;;
51824;SDS011;37879;52.986;6.282;2023-02-23T04:17:59;57.70;;;28.80;;
51824;SDS011;37879;52.986;6.282;2023-02-23T04:20:27;61.95;;;29.50;;
51824;SDS011;37879;52.986;6.282;2023-02-23T04:22:53;56.65;;;27.83;;
51824;SDS011;37879;52.986;6.282;2023-02-23T04:25:18;56.47;;;27.83;;
51824;SDS011;37879;52.986;6.282;2023-02-23T04:27:47;58.13;;;28.83;;
51824;SDS011;37879;52.986;6.282;2023-02-23T04:30:15;58.83;;;27.40;;
51824;SDS011;37879;52.986;6.282;2023-02-23T04:32:42;52.53;;;26.60;;
51824;SDS011;37879;52.986;6.282;2023-02-23T04:35:10;48.35;;;26.85;;
51824;SDS011;37879;52.986;6.282;2023-02-23T04:37:36;48.03;;;25.08;;
51824;SDS011;37879;52.986;6.282;2023-02-23T04:40:02;55.92;;;26.42;;
51824;SDS011;37879;52.986;6.282;2023-02-23T04:42:29;47.97;;;24.38;;
51824;SDS011;37879;52.986;6.282;2023-02-23T04:44:54;46.38;;;22.60;;
51824;SDS011;37879;52.986;6.282;2023-02-23T04:47:20;44.22;;;20.60;;
51824;SDS011;37879;52.986;6.282;2023-02-23T04:49:46;44.78;;;21.65;;
51824;SDS011;37879;52.986;6.282;2023-02-23T04:52:12;40.53;;;20.08;;
51824;SDS011;37879;52.986;6.282;2023-02-23T04:54:38;46.88;;;20.90;;
51824;SDS011;37879;52.986;6.282;2023-02-23T04:57:04;36.67;;;18.63;;
51824;SDS011;37879;52.986;6.282;2023-02-23T04:59:30;37.60;;;18.88;;
51824;SDS011;37879;52.986;6.282;2023-02-23T05:01:56;40.63;;;19.77;;
51824;SDS011;37879;52.986;6.282;2023-02-23T05:04:21;33.88;;;18.23;;
51824;SDS011;37879;52.986;6.282;2023-02-23T05:06:47;32.92;;;16.92;;
51824;SDS011;37879;52.986;6.282;2023-02-23T05:09:13;36.05;;;17.65;;
51824;SDS011;37879;52.986;6.282;2023-02-23T05:11:39;35.05;;;17.88;;
51824;SDS011;37879;52.986;6.282;2023-02-23T05:14:05;28.92;;;15.80;;
51824;SDS011;37879;52.986;6.282;2023-02-23T05:16:31;30.85;;;15.70;;
51824;SDS011;37879;52.986;6.282;2023-02-23T05:18:57;31.52;;;14.48;;
51824;SDS011;37879;52.986;6.282;2023-02-23T05:21:22;34.15;;;16.58;;
51824;SDS011;37879;52.986;6.282;2023-02-23T05:23:49;27.08;;;14.48;;
51824;SDS011;37879;52.986;6.282;2023-02-23T05:26:15;29.02;;;15.55;;
51824;SDS011;37879;52.986;6.282;2023-02-23T05:28:41;30.40;;;15.63;;
51824;SDS011;37879;52.986;6.282;2023-02-23T05:31:07;31.00;;;14.43;;
51824;SDS011;37879;52.986;6.282;2023-02-23T05:33:34;34.03;;;16.05;;
51824;SDS011;37879;52.986;6.282;2023-02-23T05:36:12;29.08;;;15.68;;
51824;SDS011;37879;52.986;6.282;2023-02-23T05:38:40;31.60;;;14.32;;
51824;SDS011;37879;52.986;6.282;2023-02-23T05:41:13;28.08;;;14.10;;
51824;SDS011;37879;52.986;6.282;2023-02-23T05:43:41;28.52;;;14.80;;
51824;SDS011;37879;52.986;6.282;2023-02-23T05:46:10;32.58;;;17.75;;
51824;SDS011;37879;52.986;6.282;2023-02-23T05:48:41;26.97;;;14.53;;
51824;SDS011;37879;52.986;6.282;2023-02-23T05:51:08;30.90;;;17.02;;
51824;SDS011;37879;52.986;6.282;2023-02-23T05:53:35;34.90;;;17.80;;
51824;SDS011;37879;52.986;6.282;2023-02-23T05:56:01;34.22;;;17.50;;
51824;SDS011;37879;52.986;6.282;2023-02-23T05:58:28;36.20;;;17.38;;
51824;SDS011;37879;52.986;6.282;2023-02-23T06:00:54;33.63;;;16.13;;
51824;SDS011;37879;52.986;6.282;2023-02-23T06:03:20;40.53;;;19.33;;
51824;SDS011;37879;52.986;6.282;2023-02-23T06:05:50;38.17;;;18.95;;
51824;SDS011;37879;52.986;6.282;2023-02-23T06:08:16;34.30;;;16.48;;
51824;SDS011;37879;52.986;6.282;2023-02-23T06:10:42;32.47;;;15.75;;
51824;SDS011;37879;52.986;6.282;2023-02-23T06:13:08;35.78;;;16.98;;
51824;SDS011;37879;52.986;6.282;2023-02-23T06:15:34;30.85;;;16.30;;
51824;SDS011;37879;52.986;6.282;2023-02-23T06:18:01;38.55;;;17.67;;
51824;SDS011;37879;52.986;6.282;2023-02-23T06:20:27;34.67;;;16.90;;
51824;SDS011;37879;52.986;6.282;2023-02-23T06:22:53;38.65;;;20.35;;
51824;SDS011;37879;52.986;6.282;2023-02-23T06:25:18;36.40;;;17.48;;
51824;SDS011;37879;52.986;6.282;2023-02-23T06:27:44;33.55;;;16.73;;
51824;SDS011;37879;52.986;6.282;2023-02-23T06:30:10;35.60;;;17.77;;
51824;SDS011;37879;52.986;6.282;2023-02-23T06:32:37;31.63;;;17.23;;
51824;SDS011;37879;52.986;6.282;2023-02-23T06:35:03;33.53;;;16.88;;
51824;SDS011;37879;52.986;6.282;2023-02-23T06:37:30;39.25;;;19.10;;
51824;SDS011;37879;52.986;6.282;2023-02-23T06:39:56;41.47;;;19.90;;
51824;SDS011;37879;52.986;6.282;2023-02-23T06:42:23;42.22;;;21.02;;
51824;SDS011;37879;52.986;6.282;2023-02-23T06:44:49;40.38;;;18.77;;
51824;SDS011;37879;52.986;6.282;2023-02-23T06:47:15;39.85;;;20.50;;
51824;SDS011;37879;52.986;6.282;2023-02-23T06:49:41;36.05;;;17.63;;
51824;SDS011;37879;52.986;6.282;2023-02-23T06:52:07;40.30;;;19.15;;
51824;SDS011;37879;52.986;6.282;2023-02-23T06:54:33;41.28;;;22.13;;
51824;SDS011;37879;52.986;6.282;2023-02-23T06:56:59;36.15;;;17.27;;
51824;SDS011;37879;52.986;6.282;2023-02-23T06:59:25;38.92;;;20.42;;
51824;SDS011;37879;52.986;6.282;2023-02-23T07:01:51;40.45;;;19.83;;
51824;SDS011;37879;52.986;6.282;2023-02-23T07:04:16;39.45;;;20.40;;
51824;SDS011;37879;52.986;6.282;2023-02-23T07:06:42;41.42;;;18.95;;
51824;SDS011;37879;52.986;6.282;2023-02-23T07:09:08;43.78;;;20.08;;
51824;SDS011;37879;52.986;6.282;2023-02-23T07:11:33;40.33;;;18.52;;
51824;SDS011;37879;52.986;6.282;2023-02-23T07:13:59;42.08;;;18.67;;
51824;SDS011;37879;52.986;6.282;2023-02-23T07:16:28;38.95;;;19.08;;
51824;SDS011;37879;52.986;6.282;2023-02-23T07:18:54;40.50;;;19.38;;
51824;SDS011;37879;52.986;6.282;2023-02-23T07:21:20;40.00;;;21.13;;
51824;SDS011;37879;52.986;6.282;2023-02-23T07:23:46;43.92;;;21.20;;
51824;SDS011;37879;52.986;6.282;2023-02-23T07:26:13;41.88;;;19.77;;
51824;SDS011;37879;52.986;6.282;2023-02-23T07:28:40;43.42;;;21.30;;
51824;SDS011;37879;52.986;6.282;2023-02-23T07:31:06;40.15;;;20.67;;
51824;SDS011;37879;52.986;6.282;2023-02-23T07:33:31;45.50;;;22.50;;
51824;SDS011;37879;52.986;6.282;2023-02-23T07:35:57;39.13;;;17.38;;
51824;SDS011;37879;52.986;6.282;2023-02-23T07:38:23;39.80;;;19.73;;
51824;SDS011;37879;52.986;6.282;2023-02-23T07:40:49;40.17;;;20.10;;
51824;SDS011;37879;52.986;6.282;2023-02-23T07:43:15;35.67;;;18.83;;
51824;SDS011;37879;52.986;6.282;2023-02-23T07:45:40;43.30;;;20.23;;
51824;SDS011;37879;52.986;6.282;2023-02-23T07:48:07;45.80;;;21.20;;
51824;SDS011;37879;52.986;6.282;2023-02-23T07:50:33;47.08;;;23.42;;
51824;SDS011;37879;52.986;6.282;2023-02-23T07:53:00;44.55;;;22.52;;
51824;SDS011;37879;52.986;6.282;2023-02-23T07:55:26;50.22;;;24.60;;
51824;SDS011;37879;52.986;6.282;2023-02-23T07:57:51;48.95;;;23.08;;
51824;SDS011;37879;52.986;6.282;2023-02-23T08:00:17;49.83;;;22.25;;
51824;SDS011;37879;52.986;6.282;2023-02-23T08:02:43;47.28;;;22.13;;
51824;SDS011;37879;52.986;6.282;2023-02-23T08:05:09;44.40;;;21.70;;
51824;SDS011;37879;52.986;6.282;2023-02-23T08:07:35;41.53;;;21.05;;
51824;SDS011;37879;52.986;6.282;2023-02-23T08:10:01;49.05;;;23.05;;
51824;SDS011;37879;52.986;6.282;2023-02-23T08:12:27;41.15;;;21.15;;
51824;SDS011;37879;52.986;6.282;2023-02-23T08:14:52;51.15;;;23.65;;
51824;SDS011;37879;52.986;6.282;2023-02-23T08:17:18;52.85;;;23.48;;
51824;SDS011;37879;52.986;6.282;2023-02-23T08:19:44;54.75;;;27.90;;
51824;SDS011;37879;52.986;6.282;2023-02-23T08:22:10;54.83;;;25.10;;
51824;SDS011;37879;52.986;6.282;2023-02-23T08:24:36;49.67;;;25.05;;
51824;SDS011;37879;52.986;6.282;2023-02-23T08:27:02;37.25;;;18.88;;
51824;SDS011;37879;52.986;6.282;2023-02-23T08:29:28;46.67;;;23.05;;
51824;SDS011;37879;52.986;6.282;2023-02-23T08:31:54;57.38;;;23.92;;
51824;SDS011;37879;52.986;6.282;2023-02-23T08:34:20;47.67;;;21.98;;
51824;SDS011;37879;52.986;6.282;2023-02-23T08:36:46;44.92;;;21.75;;
51824;SDS011;37879;52.986;6.282;2023-02-23T08:39:13;44.92;;;23.95;;
51824;SDS011;37879;52.986;6.282;2023-02-23T08:41:39;46.38;;;22.98;;
51824;SDS011;37879;52.986;6.282;2023-02-23T08:44:05;49.40;;;23.58;;
51824;SDS011;37879;52.986;6.282;2023-02-23T08:46:31;41.15;;;20.48;;
51824;SDS011;37879;52.986;6.282;2023-02-23T08:48:57;41.58;;;20.58;;
51824;SDS011;37879;52.986;6.282;2023-02-23T08:51:23;44.88;;;20.67;;
51824;SDS011;37879;52.986;6.282;2023-02-23T08:53:49;40.35;;;18.48;;
51824;SDS011;37879;52.986;6.282;2023-02-23T08:56:15;46.05;;;23.15;;
51824;SDS011;37879;52.986;6.282;2023-02-23T08:58:41;44.95;;;23.50;;
51824;SDS011;37879;52.986;6.282;2023-02-23T09:01:12;45.50;;;21.52;;
51824;SDS011;37879;52.986;6.282;2023-02-23T09:03:41;44.63;;;20.10;;
51824;SDS011;37879;52.986;6.282;2023-02-23T09:06:08;43.95;;;21.20;;
51824;SDS011;37879;52.986;6.282;2023-02-23T09:08:36;42.95;;;20.38;;
51824;SDS011;37879;52.986;6.282;2023-02-23T09:11:03;48.25;;;21.92;;
51824;SDS011;37879;52.986;6.282;2023-02-23T09:13:29;41.42;;;20.15;;
51824;SDS011;37879;52.986;6.282;2023-02-23T09:15:54;40.20;;;19.98;;
51824;SDS011;37879;52.986;6.282;2023-02-23T09:18:20;35.92;;;18.95;;
51824;SDS011;37879;52.986;6.282;2023-02-23T09:20:48;40.95;;;21.60;;
51824;SDS011;37879;52.986;6.282;2023-02-23T09:23:14;41.13;;;20.23;;
51824;SDS011;37879;52.986;6.282;2023-02-23T09:25:43;36.72;;;19.00;;
51824;SDS011;37879;52.986;6.282;2023-02-23T09:28:13;44.88;;;21.30;;
51824;SDS011;37879;52.986;6.282;2023-02-23T09:30:41;39.97;;;20.08;;
51824;SDS011;37879;52.986;6.282;2023-02-23T09:33:08;41.83;;;19.77;;
51824;SDS011;37879;52.986;6.282;2023-02-23T09:35:35;39.42;;;19.50;;
51824;SDS011;37879;52.986;6.282;2023-02-23T09:38:01;48.05;;;24.30;;
51824;SDS011;37879;52.986;6.282;2023-02-23T09:40:29;44.30;;;22.52;;
51824;SDS011;37879;52.986;6.282;2023-02-23T09:43:31;39.65;;;19.55;;
51824;SDS011;37879;52.986;6.282;2023-02-23T09:46:13;40.75;;;20.45;;
51824;SDS011;37879;52.986;6.282;2023-02-23T09:48:58;43.38;;;20.45;;
51824;SDS011;37879;52.986;6.282;2023-02-23T09:51:26;41.88;;;20.40;;
51824;SDS011;37879;52.986;6.282;2023-02-23T09:53:55;42.72;;;18.73;;
51824;SDS011;37879;52.986;6.282;2023-02-23T09:59:01;35.22;;;18.90;;
51824;SDS011;37879;52.986;6.282;2023-02-23T10:12:49;32.55;;;14.88;;
51824;SDS011;37879;52.986;6.282;2023-02-23T10:15:51;37.53;;;17.65;;
51824;SDS011;37879;52.986;6.282;2023-02-23T10:18:44;35.45;;;17.85;;
51824;SDS011;37879;52.986;6.282;2023-02-23T10:24:04;31.50;;;15.50;;
51824;SDS011;37879;52.986;6.282;2023-02-23T10:27:28;33.17;;;16.65;;
51824;SDS011;37879;52.986;6.282;2023-02-23T10:29:42;37.78;;;17.75;;
51824;SDS011;37879;52.986;6.282;2023-02-23T10:35:12;33.70;;;17.45;;
51824;SDS011;37879;52.986;6.282;2023-02-23T10:37:39;37.25;;;17.58;;
51824;SDS011;37879;52.986;6.282;2023-02-23T10:40:05;34.58;;;17.13;;
51824;SDS011;37879;52.986;6.282;2023-02-23T10:42:37;37.05;;;17.90;;
51824;SDS011;37879;52.986;6.282;2023-02-23T10:45:05;38.25;;;16.80;;
51824;SDS011;37879;52.986;6.282;2023-02-23T10:47:42;34.60;;;15.23;;
51824;SDS011;37879;52.986;6.282;2023-02-23T10:50:10;31.92;;;15.80;;
51824;SDS011;37879;52.986;6.282;2023-02-23T10:52:41;39.03;;;18.02;;
51824;SDS011;37879;52.986;6.282;2023-02-23T10:55:22;38.38;;;19.33;;
51824;SDS011;37879;52.986;6.282;2023-02-23T10:57:59;34.63;;;17.70;;
51824;SDS011;37879;52.986;6.282;2023-02-23T11:00:40;43.35;;;20.45;;
51824;SDS011;37879;52.986;6.282;2023-02-23T11:04:11;37.75;;;18.00;;
51824;SDS011;37879;52.986;6.282;2023-02-23T11:06:34;33.10;;;16.40;;
51824;SDS011;37879;52.986;6.282;2023-02-23T11:11:55;33.08;;;15.68;;
51824;SDS011;37879;52.986;6.282;2023-02-23T11:14:27;38.30;;;17.73;;
51824;SDS011;37879;52.986;6.282;2023-02-23T11:16:54;38.20;;;18.75;;
51824;SDS011;37879;52.986;6.282;2023-02-23T11:19:28;36.28;;;17.38;;
51824;SDS011;37879;52.986;6.282;2023-02-23T11:21:59;41.63;;;19.73;;
51824;SDS011;37879;52.986;6.282;2023-02-23T11:24:26;46.38;;;20.52;;
51824;SDS011;37879;52.986;6.282;2023-02-23T11:26:56;44.28;;;18.20;;
51824;SDS011;37879;52.986;6.282;2023-02-23T11:29:43;41.10;;;20.63;;
51824;SDS011;37879;52.986;6.282;2023-02-23T11:32:15;37.13;;;17.63;;
51824;SDS011;37879;52.986;6.282;2023-02-23T11:34:45;48.80;;;21.13;;
51824;SDS011;37879;52.986;6.282;2023-02-23T11:37:21;51.40;;;22.50;;
51824;SDS011;37879;52.986;6.282;2023-02-23T11:39:54;48.05;;;20.67;;
51824;SDS011;37879;52.986;6.282;2023-02-23T11:42:28;43.88;;;20.98;;
51824;SDS011;37879;52.986;6.282;2023-02-23T11:45:02;39.28;;;17.85;;
51824;SDS011;37879;52.986;6.282;2023-02-23T11:47:32;47.78;;;18.60;;
51824;SDS011;37879;52.986;6.282;2023-02-23T11:50:02;47.03;;;19.67;;
51824;SDS011;37879;52.986;6.282;2023-02-23T11:52:31;48.38;;;19.65;;
51824;SDS011;37879;52.986;6.282;2023-02-23T11:54:59;49.00;;;21.38;;
51824;SDS011;37879;52.986;6.282;2023-02-23T11:57:30;49.17;;;18.02;;
51824;SDS011;37879;52.986;6.282;2023-02-23T11:59:59;63.17;;;20.85;;
51824;SDS011;37879;52.986;6.282;2023-02-23T12:02:45;55.55;;;20.58;;
51824;SDS011;37879;52.986;6.282;2023-02-23T12:05:26;64.03;;;19.65;;
51824;SDS011;37879;52.986;6.282;2023-02-23T12:07:57;48.30;;;19.92;;
51824;SDS011;37879;52.986;6.282;2023-02-23T12:10:36;51.67;;;20.48;;
51824;SDS011;37879;52.986;6.282;2023-02-23T12:13:11;48.70;;;20.15;;
51824;SDS011;37879;52.986;6.282;2023-02-23T12:19:00;46.95;;;17.77;;
51824;SDS011;37879;52.986;6.282;2023-02-23T12:21:37;46.38;;;19.30;;
51824;SDS011;37879;52.986;6.282;2023-02-23T12:30:02;57.88;;;19.92;;
51824;SDS011;37879;52.986;6.282;2023-02-23T12:32:52;37.05;;;16.92;;
51824;SDS011;37879;52.986;6.282;2023-02-23T12:35:32;50.17;;;18.27;;
51824;SDS011;37879;52.986;6.282;2023-02-23T12:41:10;43.58;;;17.92;;
51824;SDS011;37879;52.986;6.282;2023-02-23T12:46:46;51.13;;;19.80;;
51824;SDS011;37879;52.986;6.282;2023-02-23T12:49:21;49.10;;;20.02;;
51824;SDS011;37879;52.986;6.282;2023-02-23T12:52:01;48.38;;;19.23;;
51824;SDS011;37879;52.986;6.282;2023-02-23T12:54:39;52.83;;;21.23;;
51824;SDS011;37879;52.986;6.282;2023-02-23T12:57:29;61.25;;;23.65;;
51824;SDS011;37879;52.986;6.282;2023-02-23T13:05:43;64.85;;;23.23;;
51824;SDS011;37879;52.986;6.282;2023-02-23T13:08:48;57.60;;;23.05;;
51824;SDS011;37879;52.986;6.282;2023-02-23T13:16:40;66.43;;;27.75;;
51824;SDS011;37879;52.986;6.282;2023-02-23T13:19:13;55.78;;;21.90;;
51824;SDS011;37879;52.986;6.282;2023-02-23T13:24:25;59.30;;;23.45;;
51824;SDS011;37879;52.986;6.282;2023-02-23T13:29:29;57.33;;;22.25;;
51824;SDS011;37879;52.986;6.282;2023-02-23T13:32:04;28.88;;;8.65;;
51824;SDS011;37879;52.986;6.282;2023-02-23T13:34:44;40.90;;;12.38;;
51824;SDS011;37879;52.986;6.282;2023-02-23T13:37:39;16.13;;;5.05;;
51824;SDS011;37879;52.986;6.282;2023-02-23T13:45:34;5.82;;;1.20;;
51824;SDS011;37879;52.986;6.282;2023-02-23T13:56:14;18.63;;;3.90;;
51824;SDS011;37879;52.986;6.282;2023-02-23T13:58:53;15.85;;;4.47;;
51824;SDS011;37879;52.986;6.282;2023-02-23T14:01:32;10.15;;;4.68;;
51824;SDS011;37879;52.986;6.282;2023-02-23T14:04:03;20.85;;;7.15;;
51824;SDS011;37879;52.986;6.282;2023-02-23T14:06:37;17.50;;;4.15;;
51824;SDS011;37879;52.986;6.282;2023-02-23T14:09:06;9.23;;;4.38;;
51824;SDS011;37879;52.986;6.282;2023-02-23T14:11:44;22.73;;;5.25;;
51824;SDS011;37879;52.986;6.282;2023-02-23T14:17:07;16.02;;;4.22;;
51824;SDS011;37879;52.986;6.282;2023-02-23T14:19:43;13.60;;;3.28;;
51824;SDS011;37879;52.986;6.282;2023-02-23T14:22:16;17.08;;;3.95;;
51824;SDS011;37879;52.986;6.282;2023-02-23T14:24:45;27.05;;;5.45;;
51824;SDS011;37879;52.986;6.282;2023-02-23T14:27:33;17.10;;;5.05;;
51824;SDS011;37879;52.986;6.282;2023-02-23T14:32:42;19.85;;;5.93;;
51824;SDS011;37879;52.986;6.282;2023-02-23T14:40:32;25.85;;;7.00;;
51824;SDS011;37879;52.986;6.282;2023-02-23T14:43:03;31.20;;;8.73;;
51824;SDS011;37879;52.986;6.282;2023-02-23T14:46:07;27.77;;;5.97;;
51824;SDS011;37879;52.986;6.282;2023-02-23T14:48:36;24.67;;;6.85;;
51824;SDS011;37879;52.986;6.282;2023-02-23T14:51:50;36.33;;;7.15;;
51824;SDS011;37879;52.986;6.282;2023-02-23T14:53:57;18.70;;;4.75;;
51824;SDS011;37879;52.986;6.282;2023-02-23T14:56:29;22.70;;;6.40;;
51824;SDS011;37879;52.986;6.282;2023-02-23T14:58:57;31.90;;;6.32;;
51824;SDS011;37879;52.986;6.282;2023-02-23T15:01:36;27.52;;;5.75;;
51824;SDS011;37879;52.986;6.282;2023-02-23T15:04:11;15.30;;;3.00;;
51824;SDS011;37879;52.986;6.282;2023-02-23T15:06:47;25.30;;;6.32;;
51824;SDS011;37879;52.986;6.282;2023-02-23T15:12:12;24.15;;;5.10;;
51824;SDS011;37879;52.986;6.282;2023-02-23T15:14:42;30.90;;;7.75;;
51824;SDS011;37879;52.986;6.282;2023-02-23T15:17:15;28.67;;;8.07;;
51824;SDS011;37879;52.986;6.282;2023-02-23T15:19:47;18.50;;;4.60;;
51824;SDS011;37879;52.986;6.282;2023-02-23T15:22:23;19.55;;;3.22;;
51824;SDS011;37879;52.986;6.282;2023-02-23T15:24:55;14.48;;;3.47;;
51824;SDS011;37879;52.986;6.282;2023-02-23T15:27:27;12.40;;;3.38;;
51824;SDS011;37879;52.986;6.282;2023-02-23T15:33:11;14.77;;;4.43;;
51824;SDS011;37879;52.986;6.282;2023-02-23T15:35:42;18.83;;;4.63;;
51824;SDS011;37879;52.986;6.282;2023-02-23T15:38:23;20.70;;;4.75;;
51824;SDS011;37879;52.986;6.282;2023-02-23T15:40:55;15.77;;;3.13;;
51824;SDS011;37879;52.986;6.282;2023-02-23T15:43:23;17.55;;;7.28;;
51824;SDS011;37879;52.986;6.282;2023-02-23T15:45:53;22.98;;;6.10;;
51824;SDS011;37879;52.986;6.282;2023-02-23T15:48:23;8.18;;;2.83;;
51824;SDS011;37879;52.986;6.282;2023-02-23T15:50:53;22.05;;;4.82;;
51824;SDS011;37879;52.986;6.282;2023-02-23T15:55:52;12.95;;;4.75;;
51824;SDS011;37879;52.986;6.282;2023-02-23T15:58:35;14.10;;;3.67;;
51824;SDS011;37879;52.986;6.282;2023-02-23T16:01:10;18.05;;;3.88;;
51824;SDS011;37879;52.986;6.282;2023-02-23T16:03:45;7.45;;;2.58;;
51824;SDS011;37879;52.986;6.282;2023-02-23T16:06:24;20.50;;;4.40;;
51824;SDS011;37879;52.986;6.282;2023-02-23T16:09:00;13.70;;;3.80;;
51824;SDS011;37879;52.986;6.282;2023-02-23T16:14:45;8.38;;;2.47;;
51824;SDS011;37879;52.986;6.282;2023-02-23T16:20:02;17.88;;;3.78;;
51824;SDS011;37879;52.986;6.282;2023-02-23T16:22:36;17.95;;;4.40;;
51824;SDS011;37879;52.986;6.282;2023-02-23T16:25:06;16.00;;;4.25;;
51824;SDS011;37879;52.986;6.282;2023-02-23T16:27:36;20.13;;;5.00;;
51824;SDS011;37879;52.986;6.282;2023-02-23T16:30:19;14.13;;;4.70;;
51824;SDS011;37879;52.986;6.282;2023-02-23T16:33:08;22.57;;;6.03;;
51824;SDS011;37879;52.986;6.282;2023-02-23T16:36:10;16.48;;;4.22;;
51824;SDS011;37879;52.986;6.282;2023-02-23T16:41:23;17.60;;;4.35;;
51824;SDS011;37879;52.986;6.282;2023-02-23T16:43:51;17.58;;;6.05;;
51824;SDS011;37879;52.986;6.282;2023-02-23T16:46:18;25.00;;;5.93;;
51824;SDS011;37879;52.986;6.282;2023-02-23T16:48:47;12.07;;;2.90;;
51824;SDS011;37879;52.986;6.282;2023-02-23T16:51:13;12.80;;;4.40;;
51824;SDS011;37879;52.986;6.282;2023-02-23T16:53:40;16.55;;;4.78;;
51824;SDS011;37879;52.986;6.282;2023-02-23T16:56:06;15.13;;;3.35;;
51824;SDS011;37879;52.986;6.282;2023-02-23T16:58:37;11.70;;;3.35;;
51824;SDS011;37879;52.986;6.282;2023-02-23T17:01:04;15.50;;;3.65;;
51824;SDS011;37879;52.986;6.282;2023-02-23T17:03:30;9.90;;;2.63;;
51824;SDS011;37879;52.986;6.282;2023-02-23T17:05:57;17.95;;;5.03;;
51824;SDS011;37879;52.986;6.282;2023-02-23T17:08:23;19.65;;;4.35;;